createdAt,value
2023-05-01T00:00:28.669Z,100.00
2023-05-01T00:02:56.463Z,100.00
2023-05-01T00:05:23.324Z,100.00
2023-05-01T00:07:50.743Z,100.00
2023-05-01T00:10:18.437Z,100.00
2023-05-01T00:12:45.722Z,100.00
2023-05-01T00:15:12.554Z,100.00
2023-05-01T00:17:39.611Z,100.00
2023-05-01T00:20:07.307Z,100.00
2023-05-01T00:22:34.110Z,100.00
2023-05-01T00:25:01.103Z,100.00
2023-05-01T00:27:27.906Z,100.00
2023-05-01T00:29:54.927Z,100.00
2023-05-01T00:32:21.977Z,100.00
2023-05-01T00:34:49.383Z,100.00
2023-05-01T00:37:17.684Z,100.00
2023-05-01T00:39:44.494Z,100.00
2023-05-01T00:42:11.468Z,100.00
2023-05-01T00:44:38.413Z,100.00
2023-05-01T00:47:05.273Z,100.00
2023-05-01T00:49:32.107Z,100.00
2023-05-01T00:51:59.002Z,100.00
2023-05-01T00:54:27.793Z,100.00
2023-05-01T00:56:55.035Z,100.00
2023-05-01T00:59:22.484Z,100.00
2023-05-01T01:01:49.274Z,100.00
2023-05-01T01:04:16.071Z,100.00
2023-05-01T01:06:59.038Z,100.00
2023-05-01T01:09:31.858Z,100.00
2023-05-01T01:12:07.835Z,100.00
2023-05-01T01:16:42.438Z,100.00
2023-05-01T01:19:43.998Z,100.00
2023-05-01T01:22:13.642Z,100.00
2023-05-01T01:24:48.655Z,100.00
2023-05-01T01:27:33.880Z,100.00
2023-05-01T01:30:29.519Z,100.00
2023-05-01T01:33:25.484Z,100.00
2023-05-01T01:36:00.128Z,100.00
2023-05-01T01:38:48.419Z,100.00
2023-05-01T01:41:29.148Z,100.00
2023-05-01T01:44:05.345Z,100.00
2023-05-01T01:46:35.752Z,100.00
2023-05-01T01:49:06.993Z,100.00
2023-05-01T01:51:34.667Z,100.00
2023-05-01T01:54:01.992Z,100.00
2023-05-01T01:56:29.013Z,100.00
2023-05-01T01:58:56.061Z,100.00
2023-05-01T02:01:23.244Z,100.00
2023-05-01T02:03:50.132Z,100.00
2023-05-01T02:06:17.170Z,100.00
2023-05-01T02:08:44.394Z,100.00
2023-05-01T02:11:11.504Z,100.00
2023-05-01T02:13:38.916Z,100.00
2023-05-01T02:16:06.516Z,100.00
2023-05-01T02:18:33.253Z,100.00
2023-05-01T02:21:00.030Z,100.00
2023-05-01T02:23:30.974Z,100.00
2023-05-01T02:25:57.905Z,100.00
2023-05-01T02:28:25.032Z,100.00
2023-05-01T02:30:52.721Z,100.00
2023-05-01T02:33:20.504Z,100.00
2023-05-01T02:35:47.881Z,100.00
2023-05-01T02:38:16.463Z,100.00
2023-05-01T02:40:46.461Z,100.00
2023-05-01T02:43:17.868Z,100.00
2023-05-01T02:45:45.078Z,100.00
2023-05-01T02:48:13.884Z,100.00
2023-05-01T02:50:42.924Z,100.00
2023-05-01T02:53:10.280Z,100.00
2023-05-01T02:55:43.748Z,100.00
2023-05-01T02:58:20.323Z,100.00
2023-05-01T03:00:49.801Z,100.00
2023-05-01T03:03:17.985Z,100.00
2023-05-01T03:05:47.688Z,100.00
2023-05-01T03:08:14.802Z,100.00
2023-05-01T03:10:44.470Z,100.00
2023-05-01T03:13:11.835Z,100.00
2023-05-01T03:15:39.015Z,100.00
2023-05-01T03:18:06.010Z,100.00
2023-05-01T03:20:33.031Z,100.00
2023-05-01T03:23:00.138Z,100.00
2023-05-01T03:25:27.001Z,100.00
2023-05-01T03:27:55.259Z,100.00
2023-05-01T03:30:22.769Z,100.00
2023-05-01T03:32:51.682Z,100.00
2023-05-01T03:35:22.096Z,100.00
2023-05-01T03:37:49.204Z,100.00
2023-05-01T03:40:26.404Z,100.00
2023-05-01T03:42:56.117Z,100.00
2023-05-01T03:45:23.618Z,98.57
2023-05-01T03:47:50.567Z,94.76
2023-05-01T03:50:17.770Z,90.83
2023-05-01T03:52:45.083Z,87.20
2023-05-01T03:55:12.003Z,82.74
2023-05-01T04:00:47.433Z,75.08
2023-05-01T04:03:14.474Z,72.43
2023-05-01T04:05:41.761Z,69.40
2023-05-01T04:08:09.254Z,66.38
2023-05-01T04:10:36.350Z,64.15
2023-05-01T04:13:05.093Z,62.80
2023-05-01T04:15:32.572Z,62.64
2023-05-01T04:17:59.653Z,61.96
2023-05-01T04:20:27.001Z,61.58
2023-05-01T04:22:55.125Z,60.78
2023-05-01T04:25:22.093Z,60.12
2023-05-01T04:27:50.149Z,59.46
2023-05-01T04:30:17.037Z,59.59
2023-05-01T04:32:44.090Z,59.03
2023-05-01T04:35:12.403Z,58.14
2023-05-01T04:37:41.163Z,57.53
2023-05-01T04:40:11.684Z,56.16
2023-05-01T04:42:39.287Z,54.95
2023-05-01T04:45:07.495Z,53.89
2023-05-01T04:47:35.738Z,53.72
2023-05-01T04:50:02.757Z,52.96
2023-05-01T04:52:30.534Z,53.78
2023-05-01T04:54:59.367Z,53.84
2023-05-01T04:57:27.947Z,55.26
2023-05-01T04:59:55.011Z,56.39
2023-05-01T05:02:22.196Z,57.54
2023-05-01T05:04:49.230Z,58.37
2023-05-01T05:07:16.751Z,59.78
2023-05-01T05:10:13.142Z,61.68
2023-05-01T05:12:40.312Z,62.21
2023-05-01T05:15:07.824Z,63.37
2023-05-01T05:17:35.445Z,64.23
2023-05-01T05:20:02.602Z,65.54
2023-05-01T05:22:30.203Z,65.52
2023-05-01T05:25:14.418Z,66.50
2023-05-01T05:27:41.183Z,66.72
2023-05-01T05:30:09.149Z,66.88
2023-05-01T05:32:36.668Z,67.90
2023-05-01T05:35:05.494Z,68.60
2023-05-01T05:37:33.031Z,69.17
2023-05-01T05:40:00.072Z,69.01
2023-05-01T05:42:27.479Z,69.19
2023-05-01T05:44:54.311Z,69.44
2023-05-01T05:47:21.428Z,70.05
2023-05-01T05:49:48.737Z,69.89
2023-05-01T05:52:15.749Z,69.49
2023-05-01T05:54:42.948Z,70.26
2023-05-01T05:57:10.030Z,69.76
2023-05-01T05:59:39.024Z,69.54
2023-05-01T06:02:06.093Z,69.65
2023-05-01T06:04:33.152Z,70.33
2023-05-01T06:07:00.397Z,69.34
2023-05-01T06:09:27.352Z,68.54
2023-05-01T06:11:54.108Z,68.62
2023-05-01T06:14:20.855Z,69.13
2023-05-01T06:16:47.707Z,68.87
2023-05-01T06:19:16.501Z,68.03
2023-05-01T06:21:43.944Z,68.62
2023-05-01T06:24:11.378Z,67.46
2023-05-01T06:27:00.800Z,67.39
2023-05-01T06:29:28.675Z,68.14
2023-05-01T06:31:56.138Z,68.75
2023-05-01T06:34:23.180Z,68.41
2023-05-01T06:36:52.834Z,67.78
2023-05-01T06:39:19.927Z,67.39
2023-05-01T06:41:47.597Z,68.08
2023-05-01T06:44:15.424Z,68.41
2023-05-01T06:46:42.410Z,68.39
2023-05-01T06:49:09.349Z,68.25
2023-05-01T06:51:36.587Z,68.17
2023-05-01T06:54:03.433Z,67.58
2023-05-01T06:56:30.364Z,67.12
2023-05-01T06:58:57.291Z,67.10
2023-05-01T07:01:24.220Z,65.28
2023-05-01T07:03:51.565Z,66.16
2023-05-01T07:06:19.087Z,66.53
2023-05-01T07:08:46.014Z,66.06
2023-05-01T07:11:12.857Z,65.63
2023-05-01T07:13:39.776Z,65.64
2023-05-01T07:16:07.848Z,66.91
2023-05-01T07:18:34.982Z,67.06
2023-05-01T07:21:02.164Z,66.81
2023-05-01T07:23:29.247Z,66.65
2023-05-01T07:25:57.354Z,65.93
2023-05-01T07:28:24.190Z,64.57
2023-05-01T07:30:51.465Z,65.14
2023-05-01T07:33:18.833Z,64.11
2023-05-01T07:35:45.716Z,64.26
2023-05-01T07:38:14.114Z,64.86
2023-05-01T07:40:41.124Z,65.45
2023-05-01T07:43:11.297Z,64.60
2023-05-01T07:45:43.052Z,63.93
2023-05-01T07:48:10.066Z,62.71
2023-05-01T07:50:36.953Z,62.30
2023-05-01T07:53:04.777Z,62.62
2023-05-01T07:55:31.715Z,61.70
2023-05-01T07:57:58.751Z,61.41
2023-05-01T08:00:25.715Z,61.28
2023-05-01T08:02:52.669Z,60.64
2023-05-01T08:05:19.737Z,60.79
2023-05-01T08:07:46.568Z,58.04
2023-05-01T08:10:14.554Z,57.54
2023-05-01T08:12:41.383Z,57.03
2023-05-01T08:15:08.722Z,59.46
2023-05-01T08:17:36.536Z,59.91
2023-05-01T08:20:04.258Z,58.90
2023-05-01T08:22:32.085Z,57.52
2023-05-01T08:24:58.826Z,56.57
2023-05-01T08:27:26.376Z,55.76
2023-05-01T08:29:53.458Z,56.82
2023-05-01T08:32:20.327Z,57.44
2023-05-01T08:34:47.077Z,57.06
2023-05-01T08:37:14.775Z,56.57
2023-05-01T08:39:42.363Z,54.56
2023-05-01T08:42:09.107Z,55.17
2023-05-01T08:44:38.329Z,54.41
2023-05-01T08:47:08.384Z,54.55
2023-05-01T08:49:35.343Z,54.36
2023-05-01T08:52:02.678Z,51.85
2023-05-01T08:54:31.138Z,50.67
2023-05-01T08:57:02.603Z,51.26
2023-05-01T08:59:36.464Z,51.86
2023-05-01T09:02:05.410Z,52.86
2023-05-01T09:04:33.175Z,51.79
2023-05-01T09:07:02.841Z,48.88
2023-05-01T09:09:30.039Z,47.81
2023-05-01T09:12:18.186Z,47.95
2023-05-01T09:14:45.703Z,47.13
2023-05-01T09:17:12.527Z,46.13
2023-05-01T09:19:40.904Z,45.62
2023-05-01T09:22:08.159Z,45.54
2023-05-01T09:24:34.941Z,46.19
2023-05-01T09:27:01.811Z,45.70
2023-05-01T09:29:39.275Z,45.59
2023-05-01T09:32:23.658Z,45.99
2023-05-01T09:34:51.617Z,48.05
2023-05-01T09:37:29.147Z,47.29
2023-05-01T09:40:06.306Z,46.71
2023-05-01T09:42:34.287Z,47.51
2023-05-01T09:45:02.094Z,47.92
2023-05-01T09:47:29.625Z,47.49
2023-05-01T09:49:57.963Z,47.27
2023-05-01T09:52:29.032Z,46.66
2023-05-01T09:55:15.148Z,45.90
2023-05-01T09:57:42.934Z,46.85
2023-05-01T10:00:11.172Z,47.08
2023-05-01T10:02:39.689Z,45.72
2023-05-01T10:05:07.439Z,44.26
2023-05-01T10:07:34.708Z,43.75
2023-05-01T10:10:21.226Z,44.27
2023-05-01T10:12:48.843Z,45.12
2023-05-01T10:15:24.683Z,44.19
2023-05-01T10:17:52.543Z,44.97
2023-05-01T10:20:23.594Z,45.13
2023-05-01T10:22:51.955Z,44.58
2023-05-01T10:25:18.840Z,44.40
2023-05-01T10:27:45.702Z,43.72
2023-05-01T10:30:12.951Z,43.65
2023-05-01T10:32:41.353Z,43.91
2023-05-01T10:35:16.587Z,43.25
2023-05-01T10:37:48.052Z,43.10
2023-05-01T10:40:40.309Z,43.69
2023-05-01T10:43:28.055Z,44.61
2023-05-01T10:46:21.578Z,43.83
2023-05-01T10:48:51.688Z,43.68
2023-05-01T10:51:27.726Z,43.38
2023-05-01T10:54:14.034Z,41.99
2023-05-01T10:56:43.062Z,42.57
2023-05-01T10:59:10.725Z,42.84
2023-05-01T11:01:40.078Z,42.95
2023-05-01T11:04:08.715Z,42.90
2023-05-01T11:06:36.589Z,43.57
2023-05-01T11:09:42.241Z,44.42
2023-05-01T11:12:32.956Z,43.73
2023-05-01T11:15:04.796Z,43.45
2023-05-01T11:17:41.387Z,43.62
2023-05-01T11:20:08.814Z,44.09
2023-05-01T11:22:36.612Z,43.35
2023-05-01T11:25:06.749Z,42.38
2023-05-01T11:27:33.535Z,41.90
2023-05-01T11:30:00.319Z,42.52
2023-05-01T11:32:28.063Z,42.98
2023-05-01T11:34:55.405Z,43.14
2023-05-01T11:37:42.020Z,42.94
2023-05-01T11:40:21.582Z,42.57
2023-05-01T11:42:48.986Z,42.79
2023-05-01T11:45:16.131Z,44.87
2023-05-01T11:47:43.025Z,44.17
2023-05-01T11:50:10.786Z,41.84
2023-05-01T11:52:55.040Z,42.55
2023-05-01T11:55:22.162Z,42.76
2023-05-01T12:00:47.427Z,42.83
2023-05-01T12:03:15.652Z,40.77
2023-05-01T12:05:43.973Z,40.97
2023-05-01T12:08:21.412Z,42.56
2023-05-01T12:10:53.498Z,43.30
2023-05-01T12:13:20.835Z,42.30
2023-05-01T12:15:50.835Z,43.06
2023-05-01T12:18:18.102Z,42.91
2023-05-01T12:20:52.011Z,41.65
2023-05-01T12:23:39.196Z,41.42
2023-05-01T12:26:25.785Z,42.92
2023-05-01T12:28:56.858Z,44.37
2023-05-01T12:31:24.697Z,44.56
2023-05-01T12:34:01.962Z,43.55
2023-05-01T12:36:31.749Z,41.89
2023-05-01T12:39:06.065Z,42.80
2023-05-01T12:41:43.461Z,42.44
2023-05-01T12:44:20.125Z,41.55
2023-05-01T12:46:53.793Z,41.09
2023-05-01T12:49:21.519Z,41.82
2023-05-01T12:51:52.803Z,41.88
2023-05-01T12:54:23.864Z,42.33
2023-05-01T12:56:53.208Z,41.76
2023-05-01T12:59:21.650Z,41.10
2023-05-01T13:01:49.105Z,40.89
2023-05-01T13:04:22.730Z,41.04
2023-05-01T13:06:49.905Z,42.32
2023-05-01T13:09:17.946Z,42.22
2023-05-01T13:12:05.885Z,42.31
2023-05-01T13:14:40.607Z,42.29
2023-05-01T13:17:11.819Z,41.86
2023-05-01T13:19:39.130Z,41.55
2023-05-01T13:22:06.366Z,41.30
2023-05-01T13:24:39.666Z,40.73
2023-05-01T13:27:11.343Z,40.32
2023-05-01T13:29:38.759Z,39.32
2023-05-01T13:34:06.547Z,39.81
2023-05-01T13:36:33.637Z,39.70
2023-05-01T13:39:00.491Z,38.54
2023-05-01T13:41:27.666Z,39.79
2023-05-01T13:43:56.471Z,39.83
2023-05-01T13:46:24.285Z,39.98
2023-05-01T13:48:51.431Z,39.58
2023-05-01T13:51:23.809Z,37.95
2023-05-01T13:53:50.614Z,37.31
2023-05-01T13:56:17.576Z,36.75
2023-05-01T13:58:44.917Z,35.83
2023-05-01T14:01:16.585Z,36.31
2023-05-01T14:03:43.671Z,36.53
2023-05-01T14:06:18.154Z,37.24
2023-05-01T14:08:46.513Z,36.82
2023-05-01T14:11:14.212Z,36.32
2023-05-01T14:13:42.273Z,36.42
2023-05-01T14:16:13.413Z,37.59
2023-05-01T14:18:47.616Z,37.09
2023-05-01T14:21:15.509Z,37.77
2023-05-01T14:23:42.883Z,38.16
2023-05-01T14:26:11.291Z,38.72
2023-05-01T14:28:43.215Z,39.59
2023-05-01T14:31:25.420Z,37.95
2023-05-01T14:33:55.460Z,37.73
2023-05-01T14:36:22.423Z,38.77
2023-05-01T14:38:50.837Z,39.33
2023-05-01T14:41:18.832Z,38.34
2023-05-01T14:43:45.586Z,38.13
2023-05-01T14:46:13.775Z,37.71
2023-05-01T14:48:41.636Z,37.67
2023-05-01T14:51:12.736Z,38.27
2023-05-01T14:53:42.455Z,38.78
2023-05-01T14:56:09.338Z,38.55
2023-05-01T14:58:36.428Z,38.54
2023-05-01T15:01:03.499Z,38.58
2023-05-01T15:03:30.710Z,38.03
2023-05-01T15:05:57.776Z,37.67
2023-05-01T15:08:25.141Z,38.47
2023-05-01T15:10:53.201Z,38.26
2023-05-01T15:20:56.762Z,36.42
2023-05-01T15:23:25.200Z,35.80
2023-05-01T15:25:52.160Z,35.71
2023-05-01T15:28:19.230Z,36.09
2023-05-01T15:30:46.697Z,36.56
2023-05-01T15:33:16.896Z,35.98
2023-05-01T15:35:48.897Z,35.14
2023-05-01T15:38:16.309Z,34.12
2023-05-01T15:40:43.529Z,33.91
2023-05-01T15:43:10.315Z,33.78
2023-05-01T15:45:43.167Z,33.61
2023-05-01T15:48:11.414Z,33.58
2023-05-01T15:50:38.384Z,33.83
2023-05-01T15:53:05.328Z,33.98
2023-05-01T15:55:32.553Z,35.00
2023-05-01T15:57:59.662Z,35.65
2023-05-01T16:00:26.648Z,35.43
2023-05-01T16:02:53.678Z,35.44
2023-05-01T16:05:21.526Z,35.53
2023-05-01T16:07:51.896Z,35.62
2023-05-01T16:10:19.001Z,35.73
2023-05-01T16:12:46.696Z,35.95
2023-05-01T16:15:13.911Z,35.88
2023-05-01T16:17:46.603Z,35.83
2023-05-01T16:20:14.418Z,36.90
2023-05-01T16:22:42.001Z,36.51
2023-05-01T16:25:12.136Z,36.31
2023-05-01T16:27:44.199Z,37.07
2023-05-01T16:30:12.214Z,37.68
2023-05-01T16:32:40.679Z,36.83
2023-05-01T16:35:10.620Z,37.19
2023-05-01T16:37:37.859Z,37.46
2023-05-01T16:40:05.673Z,37.63
2023-05-01T16:42:34.761Z,37.59
2023-05-01T16:45:01.761Z,37.75
2023-05-01T16:47:28.532Z,37.86
2023-05-01T16:49:56.825Z,38.43
2023-05-01T16:52:23.793Z,39.00
2023-05-01T16:54:51.394Z,39.54
2023-05-01T16:57:18.223Z,39.77
2023-05-01T16:59:45.232Z,40.15
2023-05-01T17:02:12.350Z,40.76
2023-05-01T17:04:39.354Z,41.17
2023-05-01T17:07:06.168Z,41.42
2023-05-01T17:09:33.335Z,41.36
2023-05-01T17:12:00.149Z,41.64
2023-05-01T17:14:28.916Z,41.99
2023-05-01T17:16:58.672Z,42.21
2023-05-01T17:19:25.916Z,42.86
2023-05-01T17:21:52.738Z,42.98
2023-05-01T17:24:19.879Z,43.38
2023-05-01T17:26:46.785Z,43.36
2023-05-01T17:29:13.594Z,43.61
2023-05-01T17:31:40.557Z,44.22
2023-05-01T17:34:07.466Z,44.42
2023-05-01T17:36:34.230Z,44.74
2023-05-01T17:39:01.671Z,44.80
2023-05-01T17:41:28.789Z,45.40
2023-05-01T17:43:55.648Z,45.20
2023-05-01T17:46:22.475Z,45.25
2023-05-01T17:48:49.386Z,45.92
2023-05-01T17:51:16.141Z,46.51
2023-05-01T17:53:42.904Z,46.38
2023-05-01T17:56:10.082Z,46.78
2023-05-01T17:58:37.132Z,47.34
2023-05-01T18:01:07.028Z,47.74
2023-05-01T18:03:34.080Z,48.40
2023-05-01T18:06:01.532Z,48.55
2023-05-01T18:08:28.420Z,48.70
2023-05-01T18:10:55.282Z,48.88
2023-05-01T18:13:28.170Z,49.31
2023-05-01T18:15:55.891Z,49.90
2023-05-01T18:18:23.254Z,49.87
2023-05-01T18:20:50.161Z,50.05
2023-05-01T18:30:49.850Z,51.13
2023-05-01T18:33:18.117Z,51.19
2023-05-01T18:35:45.252Z,51.22
2023-05-01T18:38:12.313Z,51.21
2023-05-01T18:40:39.678Z,51.83
2023-05-01T18:43:06.478Z,52.70
2023-05-01T18:45:33.295Z,53.51
2023-05-01T18:48:00.749Z,54.11
2023-05-01T18:50:27.862Z,53.58
2023-05-01T18:52:54.765Z,53.62
2023-05-01T18:55:21.634Z,54.16
2023-05-01T18:57:48.730Z,54.50
2023-05-01T19:00:16.768Z,54.48
2023-05-01T19:02:46.522Z,54.05
2023-05-01T19:05:14.011Z,54.55
2023-05-01T19:07:41.506Z,55.05
2023-05-01T19:10:08.990Z,55.57
2023-05-01T19:12:35.942Z,55.65
2023-05-01T19:15:03.078Z,56.14
2023-05-01T19:17:30.011Z,56.53
2023-05-01T19:19:57.157Z,57.72
2023-05-01T19:22:24.288Z,57.83
2023-05-01T19:24:51.585Z,58.56
2023-05-01T19:27:18.343Z,59.45
2023-05-01T19:29:45.107Z,60.88
2023-05-01T19:32:12.892Z,60.67
2023-05-01T19:34:39.822Z,60.18
2023-05-01T19:37:07.215Z,59.70
2023-05-01T19:39:34.043Z,59.55
2023-05-01T19:42:02.282Z,60.40
2023-05-01T19:44:29.265Z,61.33
2023-05-01T19:46:56.077Z,62.57
2023-05-01T19:49:25.265Z,63.22
2023-05-01T19:51:53.534Z,62.44
2023-05-01T19:54:22.354Z,62.07
2023-05-01T19:56:51.687Z,61.64
2023-05-01T19:59:19.582Z,62.04
2023-05-01T20:01:46.549Z,62.97
2023-05-01T20:04:13.478Z,63.36
2023-05-01T20:06:40.558Z,64.18
2023-05-01T20:09:07.676Z,65.92
2023-05-01T20:11:34.591Z,66.81
2023-05-01T20:14:03.645Z,66.33
2023-05-01T20:16:31.141Z,66.30
2023-05-01T20:18:58.128Z,66.49
2023-05-01T20:21:25.055Z,66.98
2023-05-01T20:23:52.218Z,68.07
2023-05-01T20:26:19.027Z,68.73
2023-05-01T20:28:45.930Z,68.71
2023-05-01T20:31:13.519Z,68.25
2023-05-01T20:33:40.424Z,68.28
2023-05-01T20:36:07.462Z,69.11
2023-05-01T20:38:42.295Z,69.35
2023-05-01T20:41:10.193Z,69.71
2023-05-01T20:43:37.168Z,70.47
2023-05-01T20:46:03.963Z,70.95
2023-05-01T20:48:32.281Z,71.39
2023-05-01T20:50:59.125Z,72.05
2023-05-01T20:53:25.875Z,72.17
2023-05-01T20:55:52.788Z,72.63
2023-05-01T20:58:19.572Z,72.79
2023-05-01T21:00:46.295Z,72.46
2023-05-01T21:03:15.288Z,72.43
2023-05-01T21:05:42.450Z,73.06
2023-05-01T21:08:09.284Z,73.72
2023-05-01T21:10:36.841Z,73.84
2023-05-01T21:13:03.796Z,73.54
2023-05-01T21:15:32.170Z,73.45
2023-05-01T21:17:59.819Z,73.93
2023-05-01T21:20:31.703Z,73.98
2023-05-01T21:23:00.151Z,72.56
2023-05-01T21:25:27.580Z,71.79
2023-05-01T21:27:54.350Z,71.62
2023-05-01T21:30:33.022Z,72.17
2023-05-01T21:33:05.557Z,72.89
2023-05-01T21:35:32.459Z,73.37
2023-05-01T21:37:59.194Z,74.24
2023-05-01T21:40:26.837Z,74.85
2023-05-01T21:42:54.103Z,75.32
2023-05-01T21:45:20.930Z,75.39
2023-05-01T21:47:49.038Z,76.06
2023-05-01T21:50:17.610Z,76.48
2023-05-01T21:52:45.930Z,77.28
2023-05-01T21:55:30.804Z,77.40
2023-05-01T21:57:58.175Z,77.64
2023-05-01T22:00:24.924Z,78.35
2023-05-01T22:02:52.058Z,78.89
2023-05-01T22:05:22.842Z,79.69
2023-05-01T22:07:52.093Z,79.84
2023-05-01T22:10:19.709Z,80.45
2023-05-01T22:12:48.812Z,80.84
2023-05-01T22:15:16.181Z,81.27
2023-05-01T22:17:42.973Z,81.89
2023-05-01T22:20:10.068Z,82.76
2023-05-01T22:22:39.100Z,82.83
2023-05-01T22:25:06.683Z,83.49
2023-05-01T22:27:33.894Z,84.17
2023-05-01T22:30:01.099Z,84.90
2023-05-01T22:32:28.372Z,85.80
2023-05-01T22:34:55.543Z,86.26
2023-05-01T22:37:22.447Z,87.18
2023-05-01T22:39:49.299Z,87.70
2023-05-01T22:42:16.407Z,88.38
2023-05-01T22:44:43.453Z,88.89
2023-05-01T22:47:10.390Z,89.38
2023-05-01T22:49:37.154Z,90.05
2023-05-01T22:52:04.025Z,90.42
2023-05-01T22:54:30.832Z,90.91
2023-05-01T22:56:57.663Z,91.36
2023-05-01T22:59:24.504Z,92.26
2023-05-01T23:01:51.307Z,92.80
2023-05-01T23:04:18.192Z,94.09
2023-05-01T23:06:45.297Z,95.23
2023-05-01T23:09:12.196Z,96.31
2023-05-01T23:11:39.806Z,97.03
2023-05-01T23:14:06.836Z,97.48
2023-05-01T23:16:38.699Z,98.17
2023-05-01T23:19:05.443Z,98.43
2023-05-01T23:21:32.178Z,98.42
2023-05-01T23:23:58.924Z,97.99
2023-05-01T23:26:26.580Z,97.71
2023-05-01T23:28:53.691Z,97.53
2023-05-01T23:31:25.956Z,97.66
2023-05-01T23:33:53.367Z,97.79
2023-05-01T23:36:20.249Z,98.45
2023-05-01T23:38:47.411Z,99.08
2023-05-01T23:41:14.858Z,99.58
2023-05-01T23:43:41.755Z,99.94
2023-05-01T23:46:08.741Z,100.00
2023-05-01T23:48:36.013Z,100.00
2023-05-01T23:51:02.886Z,100.00
2023-05-01T23:53:29.827Z,100.00
2023-05-01T23:55:56.955Z,100.00
2023-05-01T23:58:24.625Z,100.00
